createdAt,value
2023-04-15T00:09:20.033Z,23
2023-04-15T00:19:19.954Z,33
2023-04-15T00:29:19.904Z,20
2023-04-15T00:39:19.821Z,1
2023-04-15T00:49:19.769Z,1
2023-04-15T00:59:19.748Z,4
2023-04-15T01:09:19.680Z,1
2023-04-15T01:19:19.574Z,7
2023-04-15T01:29:19.526Z,1
2023-04-15T01:39:19.441Z,1
2023-04-15T01:49:19.390Z,5
2023-04-15T01:59:19.390Z,1
2023-04-15T02:09:19.363Z,1
2023-04-15T02:19:19.226Z,1
2023-04-15T02:29:19.062Z,1
2023-04-15T02:39:19.011Z,1
2023-04-15T02:49:19.050Z,1
2023-04-15T02:59:18.954Z,6
2023-04-15T03:09:18.839Z,25
2023-04-15T03:19:19.758Z,18
2023-04-15T03:29:18.684Z,9
2023-04-15T03:39:18.596Z,5
2023-04-15T03:49:18.608Z,15
2023-04-15T03:59:18.458Z,13
2023-04-15T04:09:18.361Z,26
2023-04-15T04:19:18.364Z,26
2023-04-15T04:29:18.192Z,23
2023-04-15T04:39:18.213Z,40
2023-04-15T04:49:18.115Z,27
2023-04-15T04:59:19.443Z,28
2023-04-15T05:09:18.148Z,20
2023-04-15T05:19:17.905Z,38
2023-04-15T05:29:17.813Z,45
2023-04-15T05:39:17.791Z,47
2023-04-15T05:49:17.622Z,30
2023-04-15T05:59:18.046Z,28
2023-04-15T06:09:17.564Z,30
2023-04-15T06:19:17.482Z,56
2023-04-15T06:29:17.397Z,52
2023-04-15T06:39:17.376Z,51
2023-04-15T06:49:17.224Z,55
2023-04-15T06:59:17.140Z,54
2023-04-15T07:09:17.074Z,58
2023-04-15T07:19:17.024Z,65
2023-04-15T07:29:16.897Z,69
2023-04-15T07:39:16.836Z,61
2023-04-15T07:49:16.863Z,55
2023-04-15T07:59:16.772Z,53
2023-04-15T08:09:16.726Z,59
2023-04-15T08:19:16.549Z,72
2023-04-15T08:29:16.490Z,64
2023-04-15T08:39:16.498Z,59
2023-04-15T08:49:16.407Z,76
2023-04-15T08:59:16.391Z,62
2023-04-15T09:09:16.420Z,65
2023-04-15T09:19:16.270Z,74
2023-04-15T09:29:16.181Z,91
2023-04-15T09:39:16.118Z,64
2023-04-15T09:49:16.059Z,47
2023-04-15T09:59:15.957Z,59
2023-04-15T10:09:15.823Z,50
2023-04-15T10:19:15.764Z,44
2023-04-15T10:29:15.807Z,46
2023-04-15T10:39:15.706Z,43
2023-04-15T10:49:15.534Z,24
2023-04-15T10:59:15.508Z,31
2023-04-15T11:09:15.397Z,27
2023-04-15T11:19:15.641Z,50
2023-04-15T11:29:15.787Z,52
2023-04-15T11:39:15.428Z,52
2023-04-15T11:49:15.267Z,60
2023-04-15T11:59:15.087Z,55
2023-04-15T12:09:14.960Z,46
2023-04-15T12:19:15.102Z,63
2023-04-15T12:29:15.981Z,67
2023-04-15T12:39:16.055Z,75
2023-04-15T12:49:14.805Z,82
2023-04-15T12:59:14.750Z,89
2023-04-15T13:09:14.644Z,99
2023-04-15T13:19:14.524Z,99
2023-04-15T13:29:14.588Z,99
2023-04-15T13:39:14.464Z,99
2023-04-15T13:49:14.301Z,76
2023-04-15T13:59:14.377Z,68
2023-04-15T14:09:15.406Z,90
2023-04-15T14:19:14.094Z,99
2023-04-15T14:29:14.081Z,99
2023-04-15T14:39:14.485Z,99
2023-04-15T14:49:13.875Z,99
2023-04-15T14:59:13.817Z,99
2023-04-15T15:09:13.805Z,99
2023-04-15T15:19:13.662Z,99
2023-04-15T15:29:13.711Z,99
2023-04-15T15:39:13.520Z,99
2023-04-15T15:49:13.509Z,99
2023-04-15T15:59:13.381Z,99
2023-04-15T16:09:13.296Z,99
2023-04-15T16:19:13.441Z,99
2023-04-15T16:29:13.155Z,99
2023-04-15T16:39:13.174Z,99
2023-04-15T16:49:13.064Z,99
2023-04-15T16:59:13.027Z,99
2023-04-15T17:09:12.956Z,99
2023-04-15T17:19:12.889Z,99
2023-04-15T17:29:12.820Z,99
2023-04-15T17:39:12.812Z,99
2023-04-15T17:49:12.688Z,99
2023-04-15T17:59:12.645Z,99
2023-04-15T18:09:12.686Z,99
2023-04-15T18:19:12.617Z,99
2023-04-15T18:29:12.355Z,99
2023-04-15T18:39:12.392Z,99
2023-04-15T18:49:12.300Z,99
2023-04-15T18:59:29.144Z,99
2023-04-15T19:09:12.373Z,1
2023-04-15T19:19:12.115Z,1
2023-04-15T19:29:12.064Z,1
2023-04-15T19:39:11.946Z,1
2023-04-15T19:49:11.885Z,1
2023-04-15T19:59:11.773Z,1
2023-04-15T20:09:11.944Z,1
2023-04-15T20:19:12.770Z,1
2023-04-15T20:29:11.649Z,1
2023-04-15T20:39:11.594Z,1
2023-04-15T20:49:11.514Z,1
2023-04-15T20:59:11.449Z,1
2023-04-15T21:09:11.373Z,1
2023-04-15T21:19:11.300Z,1
2023-04-15T21:29:12.001Z,1
2023-04-15T21:39:11.128Z,1
2023-04-15T21:49:11.035Z,1
2023-04-15T21:59:11.067Z,99
2023-04-15T22:09:13.445Z,99
2023-04-15T22:19:10.886Z,99
2023-04-15T22:29:10.870Z,99
2023-04-15T22:39:10.815Z,99
2023-04-15T22:49:10.676Z,90
2023-04-15T22:59:10.844Z,68
2023-04-15T23:09:10.840Z,54
2023-04-15T23:19:10.570Z,34
2023-04-15T23:29:10.569Z,31
2023-04-15T23:39:10.645Z,25
2023-04-15T23:49:10.535Z,17
2023-04-15T23:59:10.333Z,13
